Time;durP1;ratioP1;P1;durP2;ratioP2;P2;SDS_P1;SDS_P2;PMS_P1;PMS_P2;Temp;Humidity;BMP_temperature;BMP_pressure;BME280_temperature;BME280_humidity;BME280_pressure;Samples;Min_cycle;Max_cycle;Signal;HPM_P1;HPM_P2
2021/01/01 00:01:40;;;;;;;384.17;251.45;;;4.70;95.70;;;;;;5075011;28;20040;-95
2021/01/01 00:04:08;;;;;;;391.00;243.77;;;4.80;95.80;;;;;;5085395;28;20024;-93
2021/01/01 00:06:34;;;;;;;389.25;237.90;;;4.70;95.70;;;;;;5066807;28;20473;-89
2021/01/01 00:09:00;;;;;;;381.05;239.25;;;4.70;95.70;;;;;;5052333;28;20090;-92
2021/01/01 00:11:26;;;;;;;383.70;236.02;;;4.70;95.80;;;;;;5040841;28;20468;-93
2021/01/01 00:13:52;;;;;;;383.80;236.90;;;4.70;95.80;;;;;;5061452;28;20057;-92
2021/01/01 00:16:18;;;;;;;402.08;252.05;;;4.70;95.90;;;;;;5056684;28;20631;-93
2021/01/01 00:18:44;;;;;;;411.33;255.05;;;4.70;95.80;;;;;;5077953;28;20081;-92
2021/01/01 00:21:10;;;;;;;411.42;252.20;;;4.70;95.80;;;;;;5077692;28;20024;-94
2021/01/01 00:23:39;;;;;;;368.77;224.60;;;4.60;95.70;;;;;;5082412;28;20024;-92
2021/01/01 00:26:15;;;;;;;336.58;202.82;;;4.60;95.20;;;;;;5094792;28;20031;-91
2021/01/01 00:28:48;;;;;;;263.60;158.63;;;4.60;95.10;;;;;;5067202;28;20024;-93
2021/01/01 00:31:18;;;;;;;209.30;126.28;;;4.50;95.20;;;;;;5060084;28;20040;-88
2021/01/01 00:33:44;;;;;;;180.88;108.88;;;4.50;95.40;;;;;;5098838;28;20109;-88
2021/01/01 00:36:12;;;;;;;182.13;103.85;;;4.40;95.70;;;;;;5115859;28;20040;-90
2021/01/01 00:38:38;;;;;;;165.77;96.13;;;4.40;95.40;;;;;;5077682;28;20040;-91
2021/01/01 00:41:04;;;;;;;148.15;90.05;;;4.40;95.40;;;;;;5047384;28;20029;-91
2021/01/01 00:43:29;;;;;;;156.15;90.30;;;4.40;95.40;;;;;;5095470;28;20040;-93
2021/01/01 00:45:55;;;;;;;139.90;84.13;;;4.50;95.50;;;;;;5050844;28;20025;-93
2021/01/01 00:48:21;;;;;;;155.52;91.57;;;4.50;95.50;;;;;;5050024;28;20358;-92
2021/01/01 00:50:47;;;;;;;171.05;94.97;;;4.40;95.50;;;;;;5044945;28;20024;-93
2021/01/01 00:53:13;;;;;;;163.63;90.97;;;4.50;95.50;;;;;;5058060;28;20028;-92
2021/01/01 00:55:39;;;;;;;150.90;82.97;;;4.40;95.50;;;;;;5054543;28;20469;-92
2021/01/01 00:58:05;;;;;;;136.65;78.10;;;4.40;95.50;;;;;;5041921;28;20024;-91
2021/01/01 01:00:30;;;;;;;144.65;75.97;;;4.40;95.50;;;;;;5058945;28;20063;-93
2021/01/01 01:02:56;;;;;;;138.38;75.75;;;4.40;95.50;;;;;;5038513;28;20048;-93
2021/01/01 01:05:22;;;;;;;126.80;72.03;;;4.40;95.50;;;;;;5051153;28;20468;-91
2021/01/01 01:07:47;;;;;;;139.00;76.18;;;4.40;95.80;;;;;;5057085;28;20384;-92
2021/01/01 01:10:13;;;;;;;133.90;75.40;;;4.30;95.50;;;;;;5055314;28;20028;-93
2021/01/01 01:12:40;;;;;;;137.50;74.78;;;4.30;95.50;;;;;;5071864;28;20020;-91
2021/01/01 01:15:07;;;;;;;132.40;72.00;;;4.30;95.50;;;;;;5090699;28;20077;-92
2021/01/01 01:17:33;;;;;;;136.43;77.45;;;4.30;95.50;;;;;;5070897;28;20093;-93
2021/01/01 01:19:58;;;;;;;135.48;78.22;;;4.30;95.40;;;;;;5074633;28;20028;-93
2021/01/01 01:22:24;;;;;;;139.93;79.13;;;4.20;95.40;;;;;;5065972;28;20481;-90
2021/01/01 01:24:49;;;;;;;138.85;79.18;;;4.30;95.50;;;;;;5038667;28;20032;-92
2021/01/01 01:27:15;;;;;;;129.82;74.68;;;4.20;95.40;;;;;;5078373;28;20032;-93
2021/01/01 01:29:41;;;;;;;136.48;75.50;;;4.20;95.50;;;;;;5062279;28;20102;-92
2021/01/01 01:32:06;;;;;;;129.25;73.53;;;4.20;95.40;;;;;;5042960;28;20028;-93
2021/01/01 01:34:32;;;;;;;141.50;77.18;;;4.20;95.40;;;;;;5093827;28;20059;-93
2021/01/01 01:36:57;;;;;;;127.18;72.30;;;4.20;95.40;;;;;;5078473;28;20379;-93
2021/01/01 01:39:23;;;;;;;133.27;76.15;;;4.20;95.40;;;;;;5094522;28;20061;-88
2021/01/01 01:41:49;;;;;;;145.50;80.70;;;4.20;95.40;;;;;;5062102;28;20019;-92
2021/01/01 01:44:14;;;;;;;142.77;82.20;;;4.20;95.40;;;;;;5113448;28;20028;-93
2021/01/01 01:46:42;;;;;;;143.15;78.68;;;4.20;95.40;;;;;;5078665;28;20036;-94
2021/01/01 01:49:11;;;;;;;131.25;72.15;;;4.20;95.40;;;;;;5087761;28;20032;-93
2021/01/01 01:51:38;;;;;;;144.38;83.10;;;4.10;95.40;;;;;;5089460;28;20031;-93
2021/01/01 01:54:05;;;;;;;161.93;91.50;;;4.10;95.30;;;;;;5071656;28;20021;-93
2021/01/01 01:56:33;;;;;;;158.95;87.95;;;4.10;95.20;;;;;;5079937;28;20038;-92
2021/01/01 01:59:00;;;;;;;149.52;83.05;;;4.00;95.20;;;;;;5068975;28;20044;-92
2021/01/01 02:01:26;;;;;;;137.25;77.25;;;3.90;95.30;;;;;;5075806;28;20077;-91
2021/01/01 02:03:53;;;;;;;136.65;74.28;;;4.00;95.30;;;;;;5080200;28;20060;-91
2021/01/01 02:06:19;;;;;;;134.30;72.47;;;4.00;95.30;;;;;;5084324;28;20028;-91
2021/01/01 02:08:45;;;;;;;126.00;69.65;;;3.90;95.30;;;;;;5055011;28;20057;-93
2021/01/01 02:11:11;;;;;;;124.18;67.75;;;3.90;95.30;;;;;;5076938;28;20390;-91
2021/01/01 02:13:38;;;;;;;123.40;69.45;;;3.90;95.30;;;;;;5094505;28;20024;-91
2021/01/01 02:16:06;;;;;;;121.80;66.20;;;3.90;95.30;;;;;;5107511;28;20028;-93
2021/01/01 02:18:39;;;;;;;116.38;63.67;;;3.90;95.50;;;;;;5089163;28;20059;-93
2021/01/01 02:21:06;;;;;;;121.10;66.22;;;3.90;95.30;;;;;;5098901;28;20051;-92
2021/01/01 02:23:33;;;;;;;113.05;63.88;;;3.90;95.30;;;;;;5082217;28;20028;-92
2021/01/01 02:25:59;;;;;;;118.25;63.35;;;3.80;95.30;;;;;;5066823;28;20087;-92
2021/01/01 02:28:24;;;;;;;130.48;67.07;;;3.80;95.30;;;;;;5065477;28;20024;-93
2021/01/01 02:30:50;;;;;;;124.47;67.63;;;3.80;95.30;;;;;;5116959;28;20028;-93
2021/01/01 02:33:16;;;;;;;135.25;69.90;;;3.80;95.30;;;;;;5102324;28;20476;-93
2021/01/01 02:35:42;;;;;;;121.80;66.53;;;3.80;95.30;;;;;;5086240;28;20119;-93
2021/01/01 02:38:08;;;;;;;127.72;69.93;;;3.80;95.30;;;;;;5096632;28;20036;-93
2021/01/01 02:40:34;;;;;;;125.30;65.75;;;3.70;95.30;;;;;;5098427;28;20027;-93
2021/01/01 02:42:59;;;;;;;121.43;65.57;;;3.70;95.20;;;;;;5098545;28;20096;-88
2021/01/01 02:45:25;;;;;;;120.32;64.35;;;3.70;95.30;;;;;;5099176;28;20445;-90
2021/01/01 02:47:51;;;;;;;135.48;74.43;;;3.70;95.30;;;;;;5081451;28;20024;-92
2021/01/01 02:50:17;;;;;;;151.30;81.05;;;3.70;95.20;;;;;;5066680;28;20024;-90
2021/01/01 02:52:43;;;;;;;142.23;78.85;;;3.60;95.10;;;;;;5065107;28;20025;-91
2021/01/01 02:55:10;;;;;;;145.27;78.18;;;3.60;95.20;;;;;;5051851;28;20522;-91
2021/01/01 02:57:36;;;;;;;152.50;79.05;;;3.60;95.10;;;;;;5056475;28;20055;-92
2021/01/01 03:00:03;;;;;;;131.65;72.63;;;3.50;95.10;;;;;;5026515;28;20037;-89
2021/01/01 03:02:29;;;;;;;152.57;81.50;;;3.50;95.20;;;;;;5089145;28;20028;-93
2021/01/01 03:04:54;;;;;;;149.70;80.10;;;3.50;95.00;;;;;;5040558;28;20029;-91
2021/01/01 03:07:20;;;;;;;146.23;77.93;;;3.40;95.00;;;;;;5056656;28;20028;-91
2021/01/01 03:09:45;;;;;;;140.90;76.95;;;3.40;95.10;;;;;;5057713;28;20025;-92
2021/01/01 03:12:11;;;;;;;142.88;71.88;;;3.40;95.10;;;;;;5052137;28;20408;-92
2021/01/01 03:14:37;;;;;;;163.77;81.82;;;3.40;95.10;;;;;;5058356;28;20025;-92
2021/01/01 03:17:02;;;;;;;159.02;83.03;;;3.30;95.10;;;;;;5056780;28;20437;-89
2021/01/01 03:19:28;;;;;;;177.65;89.18;;;3.40;95.10;;;;;;5073667;28;20028;-93
2021/01/01 03:21:53;;;;;;;175.07;88.22;;;3.40;95.20;;;;;;5074602;28;20023;-93
2021/01/01 03:24:19;;;;;;;190.10;98.53;;;3.40;95.20;;;;;;5080889;28;20023;-92
2021/01/01 03:26:45;;;;;;;201.20;105.55;;;3.30;95.10;;;;;;5064178;28;20027;-93
2021/01/01 03:29:10;;;;;;;184.60;96.53;;;3.30;95.20;;;;;;5056663;28;20028;-93
2021/01/01 03:31:36;;;;;;;216.10;110.15;;;3.30;95.30;;;;;;5090860;28;20507;-92
2021/01/01 03:34:02;;;;;;;210.90;108.65;;;3.30;95.20;;;;;;5080951;28;20056;-93
2021/01/01 03:36:27;;;;;;;188.13;100.68;;;3.30;95.20;;;;;;5115635;28;20071;-93
2021/01/01 03:38:54;;;;;;;167.43;88.57;;;3.30;95.30;;;;;;5049322;28;20021;-91
2021/01/01 03:41:20;;;;;;;161.77;82.13;;;3.30;95.40;;;;;;5064243;28;20069;-92
2021/01/01 03:43:46;;;;;;;148.07;74.35;;;3.30;95.40;;;;;;5047298;28;20056;-93
2021/01/01 03:46:12;;;;;;;157.13;81.00;;;3.30;95.40;;;;;;5064183;28;20499;-91
2021/01/01 03:48:37;;;;;;;148.55;78.88;;;3.30;95.30;;;;;;5055901;28;20036;-93
2021/01/01 03:51:03;;;;;;;152.65;79.50;;;3.30;95.40;;;;;;5077934;28;20027;-93
2021/01/01 03:53:28;;;;;;;128.75;66.50;;;3.30;95.40;;;;;;5097662;28;20020;-93
2021/01/01 03:55:54;;;;;;;133.10;65.00;;;3.30;95.40;;;;;;5078895;28;20032;-92
2021/01/01 03:58:20;;;;;;;124.00;60.55;;;3.40;95.40;;;;;;5030197;28;20040;-93
2021/01/01 04:00:45;;;;;;;118.65;59.90;;;3.40;95.40;;;;;;5056824;28;20521;-90
2021/01/01 04:03:11;;;;;;;118.95;60.50;;;3.40;95.40;;;;;;5078615;28;20123;-93
2021/01/01 04:05:36;;;;;;;135.35;65.90;;;3.40;95.50;;;;;;5061201;28;20048;-93
2021/01/01 04:08:02;;;;;;;139.07;69.85;;;3.30;95.40;;;;;;5109323;28;20028;-92
2021/01/01 04:10:28;;;;;;;128.63;64.18;;;3.30;95.30;;;;;;5095259;28;20015;-90
2021/01/01 04:12:53;;;;;;;125.85;64.53;;;3.30;95.40;;;;;;5090521;28;20011;-88
2021/01/01 04:15:19;;;;;;;119.28;61.10;;;3.30;95.40;;;;;;5100223;28;20036;-88
2021/01/01 04:17:44;;;;;;;134.35;65.50;;;3.30;95.50;;;;;;5101339;28;20054;-92
2021/01/01 04:20:11;;;;;;;133.10;67.85;;;3.30;95.40;;;;;;5121344;28;20028;-90
2021/01/01 04:22:36;;;;;;;173.45;81.63;;;3.30;95.40;;;;;;5084990;28;20035;-91
2021/01/01 04:25:02;;;;;;;124.93;63.58;;;3.30;95.20;;;;;;5087201;28;20040;-91
2021/01/01 04:27:28;;;;;;;144.23;71.53;;;3.30;95.50;;;;;;5101865;28;20511;-90
2021/01/01 04:29:54;;;;;;;141.63;68.88;;;3.30;95.30;;;;;;5074528;28;20049;-88
2021/01/01 04:32:19;;;;;;;121.90;61.88;;;3.30;95.50;;;;;;5078492;28;20032;-93
2021/01/01 04:34:45;;;;;;;130.82;63.00;;;3.20;95.40;;;;;;5071260;28;20562;-93
2021/01/01 04:37:11;;;;;;;112.70;60.17;;;3.30;95.50;;;;;;5074697;28;20035;-92
2021/01/01 04:39:36;;;;;;;117.20;57.30;;;3.30;95.50;;;;;;5066925;28;20024;-92
2021/01/01 04:42:03;;;;;;;116.35;57.67;;;3.30;95.60;;;;;;5054215;28;20063;-92
2021/01/01 04:44:29;;;;;;;115.25;55.67;;;3.30;95.60;;;;;;5069988;28;20016;-92
2021/01/01 04:46:56;;;;;;;130.68;64.38;;;3.30;95.60;;;;;;5079538;28;20502;-92
2021/01/01 04:49:21;;;;;;;135.65;68.68;;;3.30;95.60;;;;;;5078612;28;20112;-91
2021/01/01 04:51:47;;;;;;;140.38;70.15;;;3.30;95.50;;;;;;5066671;28;20786;-92
2021/01/01 04:54:16;;;;;;;164.95;83.07;;;3.30;95.50;;;;;;5059032;28;20055;-91
2021/01/01 04:56:49;;;;;;;144.50;70.15;;;3.30;95.30;;;;;;5058785;28;20037;-93
2021/01/01 04:59:16;;;;;;;127.07;64.30;;;3.30;95.50;;;;;;5055007;28;20028;-92
2021/01/01 05:01:42;;;;;;;113.68;55.10;;;3.30;95.90;;;;;;5047501;28;20111;-93
2021/01/01 05:04:08;;;;;;;101.90;52.58;;;3.30;95.70;;;;;;5074742;28;20105;-92
2021/01/01 05:06:35;;;;;;;119.85;59.33;;;3.30;95.70;;;;;;5079442;28;20385;-93
2021/01/01 05:09:02;;;;;;;117.32;59.90;;;3.40;95.70;;;;;;5092998;28;20031;-92
2021/01/01 05:11:28;;;;;;;129.73;61.67;;;3.40;95.70;;;;;;5043982;28;20016;-92
2021/01/01 05:13:57;;;;;;;142.13;74.88;;;3.40;95.60;;;;;;5064455;28;20036;-92
2021/01/01 05:16:23;;;;;;;128.93;66.57;;;3.40;95.50;;;;;;5073737;28;20461;-93
2021/01/01 05:18:49;;;;;;;126.03;62.97;;;3.30;95.60;;;;;;5074839;28;20107;-92
2021/01/01 05:21:28;;;;;;;125.18;61.22;;;3.40;95.60;;;;;;5088942;28;20024;-92
2021/01/01 05:23:56;;;;;;;129.25;62.35;;;3.30;95.60;;;;;;5058683;28;20032;-92
2021/01/01 05:26:28;;;;;;;114.80;57.80;;;3.30;95.70;;;;;;5088744;28;20103;-91
2021/01/01 05:29:06;;;;;;;139.23;64.80;;;3.40;95.70;;;;;;5065891;28;20020;-92
2021/01/01 05:31:39;;;;;;;132.00;64.55;;;3.40;95.70;;;;;;5056469;28;20089;-92
2021/01/01 05:34:16;;;;;;;129.82;62.08;;;3.40;95.70;;;;;;5059395;28;20047;-93
2021/01/01 05:36:47;;;;;;;129.82;62.58;;;3.40;95.70;;;;;;5074800;28;20123;-93
2021/01/01 05:39:13;;;;;;;124.53;61.13;;;3.30;95.60;;;;;;5065113;28;20116;-93
2021/01/01 05:41:44;;;;;;;126.82;58.97;;;3.40;95.70;;;;;;5087814;28;20051;-92
2021/01/01 05:44:12;;;;;;;;;;;3.30;95.70;;;;;;5074842;28;20055;-92
2021/01/01 05:46:57;;;;;;;121.90;57.88;;;3.30;95.70;;;;;;5073301;28;19915;-93
2021/01/01 05:49:28;;;;;;;130.05;64.20;;;3.30;95.70;;;;;;5039748;28;20453;-93
2021/01/01 05:52:07;;;;;;;130.18;64.93;;;3.30;95.60;;;;;;5055996;28;20476;-91
2021/01/01 05:54:36;;;;;;;122.45;60.15;;;3.30;96.00;;;;;;5052159;28;20710;-92
2021/01/01 05:57:04;;;;;;;125.43;60.05;;;3.30;95.70;;;;;;5089723;28;20029;-93
2021/01/01 05:59:33;;;;;;;122.13;64.18;;;3.30;95.70;;;;;;5041847;28;20492;-93
2021/01/01 06:02:00;;;;;;;135.40;66.05;;;3.30;95.70;;;;;;5056394;28;20036;-92
2021/01/01 06:04:27;;;;;;;135.02;65.45;;;3.20;95.70;;;;;;5095314;28;20032;-93
2021/01/01 06:06:54;;;;;;;125.72;62.60;;;3.30;95.70;;;;;;5078204;28;20476;-93
2021/01/01 06:09:22;;;;;;;129.50;64.50;;;3.30;95.70;;;;;;5078110;28;20598;-90
2021/01/01 06:12:08;;;;;;;133.63;65.18;;;3.20;95.70;;;;;;5061996;28;20032;-91
2021/01/01 06:14:41;;;;;;;135.18;68.28;;;3.30;95.60;;;;;;5061848;28;20020;-92
2021/01/01 06:17:09;;;;;;;137.75;66.97;;;3.20;95.60;;;;;;5076431;28;20028;-92
2021/01/01 06:19:41;;;;;;;140.35;69.88;;;3.20;95.60;;;;;;5076206;28;20011;-92
2021/01/01 06:22:22;;;;;;;135.80;67.38;;;3.20;95.60;;;;;;5097596;28;20020;-90
2021/01/01 06:24:52;;;;;;;131.10;64.72;;;3.20;95.60;;;;;;5076150;28;20107;-92
2021/01/01 06:27:19;;;;;;;117.07;60.25;;;3.20;95.60;;;;;;5064289;28;20054;-91
2021/01/01 06:29:48;;;;;;;115.47;59.10;;;3.20;95.60;;;;;;5106350;28;20020;-92
2021/01/01 06:32:17;;;;;;;137.07;68.00;;;3.20;95.60;;;;;;5092151;28;20081;-92
2021/01/01 06:34:42;;;;;;;143.70;70.10;;;3.10;95.50;;;;;;5077552;28;20040;-94
2021/01/01 06:37:28;;;;;;;148.25;73.38;;;3.10;95.50;;;;;;5092358;28;20083;-92
2021/01/01 06:39:54;;;;;;;132.68;67.75;;;3.10;95.50;;;;;;5105218;28;20161;-90
2021/01/01 06:42:59;;;;;;;141.27;67.55;;;3.10;95.50;;;;;;5097743;28;20059;-93
2021/01/01 06:45:40;;;;;;;139.35;66.53;;;3.10;95.60;;;;;;5090280;28;20062;-92
2021/01/01 06:48:13;;;;;;;140.57;67.78;;;3.10;95.60;;;;;;5097515;28;20019;-92
2021/01/01 06:50:43;;;;;;;143.90;68.43;;;3.10;95.60;;;;;;5115796;28;20024;-92
2021/01/01 06:53:11;;;;;;;141.85;71.70;;;3.00;95.50;;;;;;5115643;28;20425;-92
2021/01/01 06:55:45;;;;;;;152.85;78.38;;;3.00;95.60;;;;;;5097518;28;20024;-92
2021/01/01 06:58:12;;;;;;;202.43;93.85;;;3.00;95.50;;;;;;5058301;28;20032;-93
2021/01/01 07:00:44;;;;;;;163.57;82.22;;;2.90;94.90;;;;;;5062944;28;20019;-91
2021/01/01 07:03:29;;;;;;;148.82;76.28;;;2.90;95.10;;;;;;5082619;28;20030;-92
2021/01/01 07:06:00;;;;;;;144.57;71.97;;;2.90;95.20;;;;;;5071561;28;20032;-92
2021/01/01 07:08:41;;;;;;;149.40;74.25;;;2.90;95.30;;;;;;5076203;28;20028;-89
2021/01/01 07:11:12;;;;;;;145.77;71.32;;;2.80;95.10;;;;;;5095084;28;20024;-92
2021/01/01 07:13:55;;;;;;;156.82;73.60;;;2.80;95.30;;;;;;5083420;28;20035;-92
2021/01/01 07:16:25;;;;;;;158.75;75.70;;;2.80;95.30;;;;;;5082478;28;20438;-93
2021/01/01 07:18:53;;;;;;;177.60;86.75;;;2.80;95.20;;;;;;5095432;28;20020;-92
2021/01/01 07:21:19;;;;;;;175.02;85.10;;;2.80;95.10;;;;;;5091127;28;20051;-92
2021/01/01 07:23:47;;;;;;;158.98;80.38;;;2.80;95.10;;;;;;5097036;28;20378;-93
2021/01/01 07:26:14;;;;;;;133.35;66.75;;;2.70;95.30;;;;;;5087220;28;20043;-92
2021/01/01 07:28:41;;;;;;;162.95;77.40;;;2.80;95.40;;;;;;5094411;28;20133;-92
2021/01/01 07:31:07;;;;;;;184.50;85.85;;;2.80;95.30;;;;;;5089074;28;20027;-93
2021/01/01 07:33:34;;;;;;;172.80;84.93;;;2.80;95.20;;;;;;5092850;28;20120;-92
2021/01/01 07:36:05;;;;;;;188.32;92.60;;;2.70;95.30;;;;;;5098767;28;20019;-93
2021/01/01 07:38:33;;;;;;;;;;;2.70;95.20;;;;;;5106480;28;20032;-90
2021/01/01 07:40:59;;;;;;;189.57;90.43;;;2.70;95.20;;;;;;5095134;28;19908;-92
2021/01/01 07:43:26;;;;;;;185.27;87.03;;;2.70;95.10;;;;;;5095343;28;20047;-92
2021/01/01 07:45:56;;;;;;;176.65;79.65;;;2.70;95.20;;;;;;5059581;28;20468;-92
2021/01/01 07:48:22;;;;;;;157.52;72.25;;;2.70;95.50;;;;;;5057341;28;20428;-90
2021/01/01 07:50:48;;;;;;;143.73;67.50;;;2.70;95.40;;;;;;5058209;28;20031;-93
2021/01/01 07:53:14;;;;;;;141.68;69.47;;;2.70;95.40;;;;;;5078831;28;20490;-93
2021/01/01 07:55:41;;;;;;;143.98;67.28;;;2.70;95.40;;;;;;5087490;28;20031;-91
2021/01/01 07:58:08;;;;;;;141.75;66.47;;;2.70;95.50;;;;;;5102304;28;20027;-91
2021/01/01 08:00:36;;;;;;;133.75;61.75;;;2.70;95.50;;;;;;5105013;28;20054;-92
2021/01/01 08:03:05;;;;;;;139.05;63.13;;;2.70;95.50;;;;;;5106900;28;20040;-90
2021/01/01 08:05:31;;;;;;;129.82;58.15;;;2.80;95.60;;;;;;5071440;28;20472;-86
2021/01/01 08:08:16;;;;;;;123.80;57.08;;;2.80;95.60;;;;;;5074471;28;20009;-92
2021/01/01 08:10:46;;;;;;;113.72;52.63;;;2.70;95.60;;;;;;5075399;28;20032;-91
2021/01/01 08:13:31;;;;;;;96.55;45.47;;;2.80;95.60;;;;;;5057659;28;20041;-93
2021/01/01 08:16:18;;;;;;;117.47;53.13;;;2.80;95.70;;;;;;5070524;28;20034;-93
2021/01/01 08:18:44;;;;;;;91.13;45.03;;;2.80;95.60;;;;;;5074696;28;20036;-92
2021/01/01 08:21:10;;;;;;;99.38;45.08;;;2.90;95.80;;;;;;5076538;28;20373;-92
2021/01/01 08:23:53;;;;;;;90.30;43.78;;;2.90;95.70;;;;;;5061706;28;20024;-92
2021/01/01 08:26:19;;;;;;;124.63;51.05;;;2.90;95.80;;;;;;5075758;28;20108;-91
2021/01/01 08:28:46;;;;;;;89.35;41.90;;;2.90;95.70;;;;;;5075728;28;20077;-92
2021/01/01 08:31:17;;;;;;;87.05;40.38;;;2.90;95.80;;;;;;5069313;28;20494;-92
2021/01/01 08:33:43;;;;;;;96.53;42.20;;;2.90;95.80;;;;;;5093514;28;20059;-93
2021/01/01 08:36:11;;;;;;;85.90;37.97;;;3.00;95.80;;;;;;5056320;28;20033;-92
2021/01/01 08:38:40;;;;;;;78.05;34.83;;;2.90;95.90;;;;;;5084545;28;20031;-92
2021/01/01 08:41:06;;;;;;;79.32;37.95;;;3.00;96.00;;;;;;5088761;28;20011;-91
2021/01/01 08:43:32;;;;;;;61.75;30.70;;;3.00;95.90;;;;;;5062294;28;20024;-92
2021/01/01 08:45:59;;;;;;;62.22;29.45;;;3.10;96.10;;;;;;5063634;28;20115;-91
2021/01/01 08:48:29;;;;;;;72.90;33.05;;;3.10;96.10;;;;;;5065366;28;20736;-92
2021/01/01 08:50:55;;;;;;;78.95;36.00;;;3.10;96.00;;;;;;5076827;28;20020;-91
2021/01/01 08:53:21;;;;;;;75.05;35.13;;;3.10;96.00;;;;;;5114263;28;20467;-93
2021/01/01 08:55:58;;;;;;;74.38;33.00;;;3.20;96.10;;;;;;5095320;28;20024;-93
2021/01/01 08:58:23;;;;;;;61.55;31.63;;;3.20;96.10;;;;;;5064354;28;20162;-94
2021/01/01 09:00:49;;;;;;;65.65;30.67;;;3.20;96.10;;;;;;5075275;28;20064;-93
2021/01/01 09:03:21;;;;;;;64.30;31.42;;;3.20;96.10;;;;;;5051154;28;20028;-93
2021/01/01 09:05:53;;;;;;;62.08;28.58;;;3.20;96.10;;;;;;5101676;28;20098;-92
2021/01/01 09:08:23;;;;;;;57.17;28.80;;;3.30;96.20;;;;;;5073701;28;20028;-92
2021/01/01 09:10:49;;;;;;;55.88;25.98;;;3.30;96.20;;;;;;5059476;28;20020;-93
2021/01/01 09:13:24;;;;;;;49.78;25.17;;;3.30;96.20;;;;;;5071610;28;20027;-92
2021/01/01 09:16:11;;;;;;;60.47;27.52;;;3.40;96.20;;;;;;5060521;28;20024;-93
2021/01/01 09:18:38;;;;;;;62.05;28.50;;;3.30;96.10;;;;;;5079086;28;20036;-93
2021/01/01 09:21:14;;;;;;;58.97;26.70;;;3.40;96.20;;;;;;5055017;28;20127;-93
2021/01/01 09:23:42;;;;;;;49.05;23.00;;;3.40;96.20;;;;;;5069197;28;20016;-93
2021/01/01 09:26:08;;;;;;;47.25;22.52;;;3.40;96.30;;;;;;5042935;28;20400;-94
2021/01/01 09:28:35;;;;;;;50.08;23.35;;;3.50;96.30;;;;;;5065860;28;20031;-92
2021/01/01 09:31:01;;;;;;;58.40;27.33;;;3.50;96.30;;;;;;5080938;28;20024;-93
2021/01/01 09:33:27;;;;;;;50.80;24.92;;;3.50;96.20;;;;;;5067186;28;20056;-92
2021/01/01 09:35:53;;;;;;;61.35;27.20;;;3.50;96.30;;;;;;5044013;28;20028;-94
2021/01/01 09:38:19;;;;;;;54.60;24.77;;;3.50;96.10;;;;;;5058392;28;20020;-93
2021/01/01 09:40:45;;;;;;;53.58;25.60;;;3.60;96.30;;;;;;5056355;28;20075;-93
2021/01/01 09:43:11;;;;;;;46.75;24.08;;;3.60;96.30;;;;;;5085498;28;20059;-93
2021/01/01 09:45:37;;;;;;;57.28;24.85;;;3.60;96.30;;;;;;5086888;28;20047;-94
2021/01/01 09:48:04;;;;;;;48.70;23.20;;;3.60;96.30;;;;;;5061940;28;20032;-93
2021/01/01 09:50:30;;;;;;;43.25;19.80;;;3.70;96.40;;;;;;5039696;28;20048;-95
2021/01/01 09:52:56;;;;;;;52.28;25.30;;;3.70;96.40;;;;;;5047086;28;20070;-95
2021/01/01 09:55:21;;;;;;;50.42;25.00;;;3.70;96.40;;;;;;5077798;28;20028;-91
2021/01/01 09:57:48;;;;;;;63.63;29.13;;;3.70;96.50;;;;;;5049814;28;20107;-95
2021/01/01 10:00:15;;;;;;;63.20;26.98;;;3.80;96.40;;;;;;5076278;28;20025;-92
2021/01/01 10:02:41;;;;;;;63.15;28.52;;;3.80;96.40;;;;;;5064128;28;20027;-95
2021/01/01 10:05:08;;;;;;;51.63;24.92;;;3.80;96.40;;;;;;5056617;28;20028;-93
2021/01/01 10:07:34;;;;;;;47.28;22.38;;;3.90;96.50;;;;;;5064223;28;20480;-96
2021/01/01 10:10:00;;;;;;;47.88;24.50;;;3.90;96.50;;;;;;5056181;28;20023;-93
2021/01/01 10:12:26;;;;;;;46.80;23.73;;;4.00;96.50;;;;;;5076572;28;20070;-93
2021/01/01 10:14:54;;;;;;;38.78;18.58;;;4.00;96.50;;;;;;5069197;28;20407;-93
2021/01/01 10:17:27;;;;;;;38.83;19.42;;;4.00;96.50;;;;;;5073557;28;20126;-94
2021/01/01 10:19:53;;;;;;;41.63;21.67;;;4.10;96.60;;;;;;5052304;28;20115;-93
2021/01/01 10:22:18;;;;;;;40.15;20.38;;;4.10;96.50;;;;;;5066728;28;20078;-94
2021/01/01 10:24:44;;;;;;;35.83;17.90;;;4.20;96.50;;;;;;5055269;28;20032;-90
2021/01/01 10:27:11;;;;;;;38.97;18.35;;;4.20;96.50;;;;;;5066655;28;20497;-95
2021/01/01 10:29:36;;;;;;;37.50;18.48;;;4.20;96.50;;;;;;5073560;28;20525;-92
2021/01/01 10:32:04;;;;;;;39.53;19.23;;;4.30;96.50;;;;;;5071014;28;20140;-91
2021/01/01 10:34:29;;;;;;;37.63;18.52;;;4.30;96.50;;;;;;5055226;28;20155;-94
2021/01/01 10:36:55;;;;;;;41.05;20.33;;;4.30;96.50;;;;;;5071060;28;20128;-94
2021/01/01 10:39:21;;;;;;;38.78;19.08;;;4.40;96.60;;;;;;5059567;28;20032;-95
2021/01/01 10:41:49;;;;;;;32.38;16.27;;;4.40;96.60;;;;;;5048890;28;20031;-91
2021/01/01 10:44:15;;;;;;;33.20;17.23;;;4.50;96.70;;;;;;5071614;28;20484;-95
2021/01/01 10:46:41;;;;;;;39.10;18.92;;;4.50;96.70;;;;;;5087524;28;20032;-94
2021/01/01 10:49:08;;;;;;;35.63;18.33;;;4.60;96.60;;;;;;5062690;28;20021;-93
2021/01/01 10:51:33;;;;;;;31.92;17.10;;;4.60;96.60;;;;;;5078933;28;20024;-94
2021/01/01 10:53:59;;;;;;;37.60;18.58;;;4.60;96.60;;;;;;5074863;28;20020;-95
2021/01/01 10:56:27;;;;;;;31.13;17.17;;;4.70;96.60;;;;;;5042009;28;20024;-93
2021/01/01 10:58:55;;;;;;;27.48;14.70;;;4.60;96.50;;;;;;5090092;28;20101;-93
2021/01/01 11:01:22;;;;;;;31.17;15.00;;;4.70;96.50;;;;;;5051401;28;20032;-94
2021/01/01 11:03:49;;;;;;;27.30;13.93;;;4.70;96.60;;;;;;5075090;28;20430;-90
2021/01/01 11:06:16;;;;;;;37.58;18.00;;;4.70;96.60;;;;;;5054653;28;20060;-93
2021/01/01 11:08:42;;;;;;;30.65;15.13;;;4.70;96.50;;;;;;5078052;28;20115;-94
2021/01/01 11:11:11;;;;;;;30.55;15.02;;;4.70;96.70;;;;;;5076073;28;20085;-94
2021/01/01 11:13:40;;;;;;;33.45;16.23;;;4.80;96.70;;;;;;5088997;28;20533;-92
2021/01/01 12:25:09;;;;;;;15.13;9.07;;;5.70;96.00;;;;;;5081839;28;20028;-92
2021/01/01 12:27:36;;;;;;;15.38;9.40;;;5.70;96.10;;;;;;5064416;28;20035;-92
2021/01/01 12:30:04;;;;;;;15.07;8.70;;;5.70;96.00;;;;;;5060354;28;20028;-93
2021/01/01 12:32:31;;;;;;;16.77;9.98;;;5.80;96.10;;;;;;5075856;28;20024;-92
2021/01/01 12:34:59;;;;;;;16.00;9.60;;;5.80;96.00;;;;;;5054902;28;20052;-89
2021/01/01 12:37:24;;;;;;;16.48;9.15;;;5.90;96.10;;;;;;5073683;28;20476;-94
2021/01/01 12:39:50;;;;;;;15.77;9.05;;;5.90;96.00;;;;;;5047330;28;20111;-93
2021/01/01 12:42:15;;;;;;;15.63;9.68;;;5.90;96.10;;;;;;5075848;28;20036;-92
2021/01/01 12:44:41;;;;;;;14.57;9.13;;;5.90;96.00;;;;;;5033023;28;20021;-93
2021/01/01 12:47:07;;;;;;;18.10;10.00;;;6.00;96.10;;;;;;5031030;28;20043;-93
2021/01/01 12:49:32;;;;;;;20.05;10.55;;;6.00;96.00;;;;;;5064961;28;20036;-93
2021/01/01 12:51:58;;;;;;;14.45;8.82;;;6.00;95.80;;;;;;5046988;28;20024;-95
2021/01/01 12:54:24;;;;;;;18.17;10.77;;;6.10;96.00;;;;;;5058499;28;20471;-92
2021/01/01 12:56:50;;;;;;;16.48;9.30;;;6.10;95.80;;;;;;5050391;28;20067;-93
2021/01/01 12:59:15;;;;;;;14.20;8.77;;;6.10;95.80;;;;;;5038858;28;20032;-92
2021/01/01 13:01:41;;;;;;;15.60;8.82;;;6.10;95.90;;;;;;5064845;28;20078;-93
2021/01/01 13:04:07;;;;;;;21.83;10.57;;;6.20;95.90;;;;;;5080551;28;20055;-93
2021/01/01 13:06:32;;;;;;;16.40;9.55;;;6.20;95.80;;;;;;5078855;28;20369;-92
2021/01/01 13:08:58;;;;;;;14.55;8.40;;;6.20;95.80;;;;;;5061816;28;20123;-92
2021/01/01 13:11:31;;;;;;;14.85;9.02;;;6.30;95.80;;;;;;5059180;28;20478;-93
2021/01/01 13:14:00;;;;;;;16.13;10.07;;;6.30;95.70;;;;;;5063645;28;20052;-91
2021/01/01 13:16:27;;;;;;;16.83;10.30;;;6.30;95.80;;;;;;5059458;28;20025;-91
2021/01/01 13:18:54;;;;;;;18.95;10.15;;;6.30;95.60;;;;;;5065325;28;20039;-93
2021/01/01 13:21:28;;;;;;;15.80;9.85;;;6.30;95.60;;;;;;5077881;28;20103;-94
2021/01/01 13:23:55;;;;;;;15.68;9.48;;;6.40;95.60;;;;;;5064333;28;20224;-93
2021/01/01 13:26:22;;;;;;;18.35;10.18;;;6.40;95.70;;;;;;5047360;28;20039;-94
2021/01/01 13:28:48;;;;;;;15.77;9.45;;;6.40;95.60;;;;;;5045899;28;20024;-93
2021/01/01 13:31:15;;;;;;;16.67;10.88;;;6.40;95.60;;;;;;5067229;28;20090;-93
2021/01/01 13:33:41;;;;;;;15.32;9.18;;;6.50;95.60;;;;;;5063242;28;20114;-94
2021/01/01 13:36:13;;;;;;;12.88;8.85;;;6.50;95.50;;;;;;5047910;28;20061;-93
2021/01/01 13:38:39;;;;;;;17.05;10.02;;;6.50;95.60;;;;;;5074141;28;20024;-92
2021/01/01 13:41:05;;;;;;;13.35;7.95;;;6.60;95.40;;;;;;5045401;28;20027;-90
2021/01/01 13:43:30;;;;;;;15.93;9.02;;;6.60;95.60;;;;;;5068188;28;20029;-86